createdAt,value
2019-02-25T00:00:36.524Z,54.58
2019-02-25T00:03:05.957Z,49.83
2019-02-25T00:05:35.372Z,60.30
2019-02-25T00:08:04.729Z,68.65
2019-02-25T00:10:34.064Z,74.05
2019-02-25T00:13:03.488Z,70.35
2019-02-25T00:15:32.834Z,69.67
2019-02-25T00:18:02.201Z,52.95
2019-02-25T00:20:31.521Z,44.45
2019-02-25T00:23:00.890Z,48.15
2019-02-25T00:25:30.218Z,42.75
2019-02-25T00:27:59.746Z,46.73
2019-02-25T00:30:29.082Z,45.43
2019-02-25T00:32:58.441Z,48.95
2019-02-25T00:35:27.770Z,45.30
2019-02-25T00:37:57.131Z,56.40
2019-02-25T00:40:27.722Z,101.53
2019-02-25T00:42:57.215Z,79.70
2019-02-25T00:45:26.548Z,68.52
2019-02-25T00:47:55.910Z,58.40
2019-02-25T00:50:25.266Z,69.58
2019-02-25T00:52:54.585Z,58.02
2019-02-25T00:55:23.938Z,52.98
2019-02-25T00:57:53.265Z,53.25
2019-02-25T01:00:23.163Z,54.53
2019-02-25T01:02:52.491Z,58.68
2019-02-25T01:05:21.850Z,58.78
2019-02-25T01:07:51.185Z,61.92
2019-02-25T01:10:20.559Z,56.23
2019-02-25T01:12:49.881Z,53.13
2019-02-25T01:15:19.236Z,49.83
2019-02-25T01:17:48.572Z,61.63
2019-02-25T01:20:18.015Z,377.55
2019-02-25T01:22:47.371Z,403.25
2019-02-25T01:25:17.711Z,80.67
2019-02-25T01:27:47.049Z,70.78
2019-02-25T01:30:19.866Z,53.40
2019-02-25T01:32:49.200Z,56.95
2019-02-25T01:35:28.215Z,42.13
2019-02-25T01:37:57.416Z,44.00
2019-02-25T01:40:26.775Z,39.40
2019-02-25T01:42:56.115Z,38.08
2019-02-25T01:45:25.469Z,69.35
2019-02-25T01:47:54.807Z,53.60
2019-02-25T01:50:24.163Z,53.70
2019-02-25T01:52:53.491Z,54.55
2019-02-25T01:55:22.849Z,57.65
2019-02-25T01:57:52.184Z,66.95
2019-02-25T02:00:21.539Z,63.85
2019-02-25T02:02:50.870Z,56.60
2019-02-25T02:05:20.232Z,48.75
2019-02-25T02:07:49.572Z,48.63
2019-02-25T02:10:18.933Z,60.95
2019-02-25T02:12:48.264Z,44.33
2019-02-25T02:15:19.630Z,48.92
2019-02-25T02:17:48.967Z,57.53
2019-02-25T02:20:18.498Z,55.63
2019-02-25T02:22:47.838Z,55.43
2019-02-25T02:25:17.185Z,46.73
2019-02-25T02:27:46.516Z,44.90
2019-02-25T02:30:20.675Z,44.60
2019-02-25T02:32:49.994Z,38.63
2019-02-25T02:35:19.352Z,41.37
2019-02-25T02:37:48.688Z,40.30
2019-02-25T02:40:18.059Z,39.18
2019-02-25T02:43:00.392Z,35.20
2019-02-25T02:45:42.227Z,41.00
2019-02-25T02:48:18.145Z,35.92
2019-02-25T02:50:47.514Z,45.35
2019-02-25T02:53:16.850Z,34.98
2019-02-25T02:55:46.205Z,38.13
2019-02-25T02:58:15.532Z,37.55
2019-02-25T03:00:44.901Z,35.98
2019-02-25T03:03:14.513Z,34.30
2019-02-25T03:05:43.877Z,36.30
2019-02-25T03:08:13.215Z,39.03
2019-02-25T03:10:42.703Z,37.38
2019-02-25T03:13:12.039Z,39.20
2019-02-25T03:15:41.395Z,42.85
2019-02-25T03:18:10.737Z,44.55
2019-02-25T03:20:40.118Z,41.00
2019-02-25T03:23:09.462Z,45.33
2019-02-25T03:25:38.809Z,44.65
2019-02-25T03:28:08.180Z,43.65
2019-02-25T03:30:37.516Z,45.60
2019-02-25T03:33:06.882Z,43.55
2019-02-25T03:35:36.210Z,39.80
2019-02-25T03:38:05.576Z,37.50
2019-02-25T03:40:34.903Z,43.85
2019-02-25T03:43:04.336Z,42.90
2019-02-25T03:45:33.648Z,39.10
2019-02-25T03:48:03.009Z,40.75
2019-02-25T03:50:32.342Z,52.85
2019-02-25T03:53:01.701Z,46.70
2019-02-25T03:55:31.031Z,37.00
2019-02-25T03:58:00.395Z,44.60
2019-02-25T04:00:29.731Z,42.55
2019-02-25T04:02:59.094Z,41.33
2019-02-25T04:05:28.432Z,46.08
2019-02-25T04:07:57.776Z,48.38
2019-02-25T04:10:27.121Z,61.30
2019-02-25T04:12:56.478Z,72.50
2019-02-25T04:15:30.490Z,78.05
2019-02-25T04:17:59.852Z,93.55
2019-02-25T04:20:29.183Z,94.20
2019-02-25T04:22:58.540Z,77.50
2019-02-25T04:25:27.863Z,83.67
2019-02-25T04:27:57.226Z,94.10
2019-02-25T04:30:26.560Z,90.97
2019-02-25T04:32:55.927Z,79.97
2019-02-25T04:35:25.251Z,62.17
2019-02-25T04:37:54.627Z,64.87
2019-02-25T04:40:23.971Z,78.33
2019-02-25T04:42:53.321Z,61.55
2019-02-25T04:45:22.677Z,40.88
2019-02-25T04:47:52.120Z,45.55
2019-02-25T04:50:21.424Z,54.23
2019-02-25T04:52:50.787Z,79.20
2019-02-25T04:55:20.115Z,92.78
2019-02-25T04:57:49.486Z,109.17
2019-02-25T05:00:21.677Z,92.92
2019-02-25T05:02:51.040Z,107.20
2019-02-25T05:05:20.370Z,93.50
2019-02-25T05:07:49.833Z,49.50
2019-02-25T05:10:19.177Z,83.42
2019-02-25T05:13:04.989Z,41.15
2019-02-25T05:15:35.606Z,35.70
2019-02-25T05:18:04.976Z,36.20
2019-02-25T05:20:34.317Z,36.35
2019-02-25T05:23:03.684Z,36.00
2019-02-25T05:25:33.033Z,33.85
2019-02-25T05:28:02.370Z,35.10
2019-02-25T05:30:31.703Z,34.88
2019-02-25T05:33:01.065Z,54.30
2019-02-25T05:35:30.406Z,46.08
2019-02-25T05:37:59.756Z,36.35
2019-02-25T05:40:29.091Z,37.75
2019-02-25T05:42:58.462Z,31.45
2019-02-25T05:45:27.785Z,31.27
2019-02-25T05:47:57.163Z,34.75
2019-02-25T05:50:26.503Z,35.65
2019-02-25T05:52:55.867Z,37.45
2019-02-25T05:55:25.203Z,36.15
2019-02-25T05:57:54.551Z,46.55
2019-02-25T06:00:25.780Z,50.40
2019-02-25T06:02:55.263Z,49.95
2019-02-25T06:05:24.598Z,41.20
2019-02-25T06:07:54.099Z,37.60
2019-02-25T06:10:23.489Z,38.95
2019-02-25T06:12:52.847Z,30.72
2019-02-25T06:15:22.177Z,31.50
2019-02-25T06:17:51.542Z,30.43
2019-02-25T06:20:20.878Z,28.95
2019-02-25T06:22:50.264Z,32.40
2019-02-25T06:25:19.606Z,27.67
2019-02-25T06:27:48.952Z,23.90
2019-02-25T06:30:24.446Z,27.42
2019-02-25T06:32:53.831Z,26.02
2019-02-25T06:35:23.169Z,46.35
2019-02-25T06:37:52.558Z,28.42
2019-02-25T06:40:22.080Z,35.43
2019-02-25T06:42:51.415Z,36.70
2019-02-25T06:45:25.922Z,41.55
2019-02-25T06:47:55.258Z,38.13
2019-02-25T06:50:24.654Z,50.73
2019-02-25T06:52:53.978Z,25.85
2019-02-25T06:55:23.334Z,27.60
2019-02-25T06:57:52.665Z,34.05
2019-02-25T07:00:24.682Z,31.57
2019-02-25T07:02:54.080Z,29.15
2019-02-25T07:05:41.033Z,28.75
2019-02-25T07:08:14.722Z,33.33
2019-02-25T07:10:54.865Z,40.73
2019-02-25T07:13:25.880Z,29.95
2019-02-25T07:15:56.850Z,30.27
2019-02-25T07:18:39.547Z,31.35
2019-02-25T07:21:10.520Z,33.63
2019-02-25T07:23:41.516Z,30.92
2019-02-25T07:26:15.266Z,33.20
2019-02-25T07:29:03.499Z,31.45
2019-02-25T07:31:34.575Z,35.90
2019-02-25T07:34:17.491Z,35.23
2019-02-25T07:36:57.471Z,37.53
2019-02-25T07:39:46.071Z,37.28
2019-02-25T07:42:31.882Z,31.60
2019-02-25T07:45:17.658Z,39.25
2019-02-25T07:47:51.666Z,40.92
2019-02-25T07:50:28.173Z,43.10
2019-02-25T07:53:11.228Z,37.33
2019-02-25T07:56:02.304Z,34.08
2019-02-25T07:58:39.636Z,35.90
2019-02-25T08:01:16.603Z,32.78
2019-02-25T08:03:56.537Z,37.73
2019-02-25T08:06:30.253Z,44.53
2019-02-25T08:09:07.121Z,36.45
2019-02-25T08:11:38.120Z,39.42
2019-02-25T08:14:18.089Z,45.50
2019-02-25T08:16:53.377Z,36.65
2019-02-25T08:19:27.281Z,38.25
2019-02-25T08:22:14.257Z,37.75
2019-02-25T08:24:50.986Z,37.10
2019-02-25T08:27:30.962Z,36.77
2019-02-25T08:30:10.974Z,33.58
2019-02-25T08:32:42.148Z,34.50
2019-02-25T08:35:25.254Z,42.93
2019-02-25T08:37:57.935Z,35.60
2019-02-25T08:40:52.865Z,37.33
2019-02-25T08:43:29.758Z,37.88
2019-02-25T08:46:15.461Z,31.60
2019-02-25T08:48:55.201Z,38.63
2019-02-25T08:51:24.591Z,39.05
2019-02-25T08:53:53.910Z,37.58
2019-02-25T08:56:23.254Z,40.35
2019-02-25T08:58:52.603Z,41.48
2019-02-25T09:01:21.942Z,36.42
2019-02-25T09:03:51.310Z,40.65
2019-02-25T09:06:20.651Z,35.80
2019-02-25T09:08:50.007Z,34.65
2019-02-25T09:11:19.339Z,40.05
2019-02-25T09:13:48.706Z,41.00
2019-02-25T09:16:18.402Z,41.28
2019-02-25T09:18:47.763Z,38.28
2019-02-25T09:21:17.108Z,37.53
2019-02-25T09:23:46.478Z,41.73
2019-02-25T09:26:15.805Z,38.28
2019-02-25T09:28:45.196Z,39.42
2019-02-25T09:31:14.556Z,38.75
2019-02-25T09:33:44.421Z,39.92
2019-02-25T09:36:13.790Z,41.00
2019-02-25T09:38:43.135Z,39.80
2019-02-25T09:41:12.517Z,39.80
2019-02-25T09:43:41.861Z,44.10
2019-02-25T09:46:11.226Z,38.95
2019-02-25T09:48:40.575Z,42.43
2019-02-25T09:51:11.339Z,41.68
2019-02-25T09:53:40.764Z,45.43
2019-02-25T09:56:10.146Z,37.88
2019-02-25T09:58:39.503Z,43.73
2019-02-25T10:01:08.875Z,50.40
2019-02-25T10:03:38.600Z,43.38
2019-02-25T10:06:07.980Z,39.53
2019-02-25T10:08:37.324Z,39.55
2019-02-25T10:11:06.708Z,39.25
2019-02-25T10:13:36.050Z,36.95
2019-02-25T10:16:05.421Z,34.78
2019-02-25T10:18:36.318Z,36.35
2019-02-25T10:21:05.706Z,40.05
2019-02-25T10:23:35.045Z,39.10
2019-02-25T10:26:05.786Z,37.40
2019-02-25T10:28:36.778Z,37.35
2019-02-25T10:31:06.143Z,37.55
2019-02-25T10:33:35.490Z,38.90
2019-02-25T10:36:04.874Z,38.05
2019-02-25T10:38:34.223Z,34.75
2019-02-25T10:41:03.595Z,34.45
2019-02-25T10:43:34.559Z,33.60
2019-02-25T10:46:04.019Z,33.02
2019-02-25T10:48:33.364Z,29.55
2019-02-25T10:51:04.755Z,32.38
2019-02-25T10:53:33.764Z,28.27
2019-02-25T10:56:06.396Z,32.75
2019-02-25T10:58:36.071Z,27.85
2019-02-25T11:01:08.445Z,30.43
2019-02-25T11:03:36.746Z,30.55
2019-02-25T11:06:06.119Z,26.75
2019-02-25T11:08:37.242Z,28.57
2019-02-25T11:11:14.065Z,24.92
2019-02-25T11:13:43.868Z,24.77
2019-02-25T11:16:14.020Z,25.75
2019-02-25T11:18:55.024Z,32.05
2019-02-25T11:21:24.634Z,22.00
2019-02-25T11:23:53.973Z,30.23
2019-02-25T11:26:24.300Z,23.90
2019-02-25T11:28:54.608Z,47.95
2019-02-25T11:31:26.312Z,27.13
2019-02-25T11:33:56.440Z,66.25
2019-02-25T11:36:26.515Z,40.20
2019-02-25T11:38:57.827Z,23.92
2019-02-25T11:41:27.545Z,36.00
2019-02-25T11:43:56.894Z,26.52
2019-02-25T11:46:26.271Z,39.15
2019-02-25T11:48:55.622Z,43.80
2019-02-25T11:51:24.999Z,37.90
2019-02-25T11:53:55.977Z,34.95
2019-02-25T11:56:25.345Z,27.13
2019-02-25T11:58:54.925Z,22.60
2019-02-25T12:01:24.296Z,23.67
2019-02-25T12:03:53.642Z,20.68
2019-02-25T12:06:23.024Z,17.73
2019-02-25T12:08:52.371Z,14.63
2019-02-25T12:11:21.719Z,14.40
2019-02-25T12:13:51.097Z,17.62
2019-02-25T12:16:21.774Z,16.40
2019-02-25T12:18:58.453Z,17.37
2019-02-25T12:21:27.819Z,15.78
2019-02-25T12:23:57.164Z,18.85
2019-02-25T12:26:26.527Z,15.03
2019-02-25T12:28:55.926Z,21.07
2019-02-25T12:31:25.266Z,15.53
2019-02-25T12:33:54.638Z,17.27
2019-02-25T12:36:23.998Z,20.62
2019-02-25T12:38:53.581Z,20.75
2019-02-25T12:41:22.937Z,17.95
2019-02-25T12:43:53.287Z,24.20
2019-02-25T12:46:22.651Z,43.10
2019-02-25T12:48:53.428Z,19.20
2019-02-25T12:51:22.776Z,39.42
2019-02-25T12:53:55.250Z,34.48
2019-02-25T12:56:24.599Z,40.95
2019-02-25T12:58:53.978Z,30.82
2019-02-25T13:01:26.333Z,13.15
2019-02-25T13:03:55.701Z,11.80
2019-02-25T13:06:25.044Z,18.95
2019-02-25T13:08:54.416Z,11.38
2019-02-25T13:11:24.785Z,15.23
2019-02-25T13:13:54.149Z,13.80
2019-02-25T13:16:23.656Z,12.93
2019-02-25T13:18:57.161Z,22.75
2019-02-25T13:21:26.498Z,18.17
2019-02-25T13:23:59.457Z,16.27
2019-02-25T13:26:29.272Z,16.95
2019-02-25T13:28:59.645Z,14.93
2019-02-25T13:31:29.010Z,12.65
2019-02-25T13:33:58.382Z,13.25
2019-02-25T13:36:27.715Z,11.88
2019-02-25T13:38:57.660Z,14.53
2019-02-25T13:41:27.958Z,15.30
2019-02-25T13:43:57.336Z,21.07
2019-02-25T13:46:27.859Z,20.15
2019-02-25T13:48:57.566Z,14.50
2019-02-25T13:51:27.292Z,12.98
2019-02-25T13:53:56.672Z,14.38
2019-02-25T13:56:28.862Z,13.18
2019-02-25T13:58:58.823Z,14.47
2019-02-25T14:01:29.056Z,15.85
2019-02-25T14:03:58.699Z,17.42
2019-02-25T14:06:28.504Z,13.58
2019-02-25T14:08:58.753Z,14.60
2019-02-25T14:11:28.670Z,16.93
2019-02-25T14:13:58.037Z,13.58
2019-02-25T14:16:30.254Z,12.47
2019-02-25T14:18:59.743Z,13.68
2019-02-25T14:21:29.102Z,15.53
2019-02-25T14:23:59.787Z,14.43
2019-02-25T14:26:29.323Z,13.05
2019-02-25T14:28:58.682Z,15.30
2019-02-25T14:31:29.934Z,17.05
2019-02-25T14:33:59.152Z,12.37
2019-02-25T14:36:28.513Z,14.80
2019-02-25T14:38:59.458Z,10.20
2019-02-25T14:41:29.075Z,10.23
2019-02-25T14:44:00.630Z,5.12
2019-02-25T14:46:30.528Z,5.55
2019-02-25T14:48:59.888Z,6.05
2019-02-25T14:51:29.218Z,6.97
2019-02-25T14:53:58.584Z,7.33
2019-02-25T14:56:27.920Z,9.18
2019-02-25T14:58:57.286Z,7.55
2019-02-25T15:01:27.660Z,8.38
2019-02-25T15:03:58.166Z,9.58
2019-02-25T15:06:30.282Z,10.80
2019-02-25T15:09:01.795Z,14.93
2019-02-25T15:11:30.857Z,13.90
2019-02-25T15:14:00.234Z,15.32
2019-02-25T15:16:29.683Z,38.02
2019-02-25T15:19:00.585Z,36.58
2019-02-25T15:21:30.298Z,34.92
2019-02-25T15:24:02.305Z,42.70
2019-02-25T15:26:31.204Z,20.65
2019-02-25T15:29:02.915Z,14.83
2019-02-25T15:31:33.771Z,120.08
2019-02-25T15:34:03.263Z,46.98
2019-02-25T15:36:33.523Z,44.45
2019-02-25T15:39:03.403Z,131.75
2019-02-25T15:41:33.276Z,41.90
2019-02-25T15:44:04.714Z,57.35
2019-02-25T15:46:33.858Z,66.33
2019-02-25T15:49:04.569Z,52.38
2019-02-25T15:51:35.106Z,46.18
2019-02-25T15:54:05.003Z,102.58
2019-02-25T15:56:34.385Z,59.03
2019-02-25T15:59:06.975Z,320.00
2019-02-25T16:01:36.351Z,456.70
2019-02-25T16:04:09.235Z,28.23
2019-02-25T16:06:39.838Z,15.45
2019-02-25T16:09:09.202Z,16.93
2019-02-25T16:11:41.434Z,12.63
2019-02-25T16:14:10.970Z,12.95
2019-02-25T16:16:41.450Z,33.10
2019-02-25T16:19:10.895Z,25.05
2019-02-25T16:21:40.997Z,14.10
2019-02-25T16:24:13.631Z,12.93
2019-02-25T16:26:42.784Z,22.75
2019-02-25T16:29:13.451Z,41.48
2019-02-25T16:31:43.137Z,43.30
2019-02-25T16:34:14.181Z,45.90
2019-02-25T16:36:45.192Z,20.48
2019-02-25T16:39:15.169Z,16.80
2019-02-25T16:41:45.667Z,14.90
2019-02-25T16:44:15.669Z,14.65
2019-02-25T16:46:46.750Z,15.70
2019-02-25T16:49:16.408Z,14.43
2019-02-25T16:51:46.267Z,20.30
2019-02-25T16:54:21.159Z,19.45
2019-02-25T16:56:52.267Z,20.70
2019-02-25T16:59:23.041Z,18.10
2019-02-25T17:01:55.798Z,24.65
2019-02-25T17:04:25.479Z,21.97
2019-02-25T17:06:55.702Z,19.90
2019-02-25T17:09:27.698Z,23.27
2019-02-25T17:11:58.134Z,26.35
2019-02-25T17:14:28.293Z,29.00
2019-02-25T17:16:57.661Z,27.98
2019-02-25T17:19:28.330Z,21.35
2019-02-25T17:21:58.278Z,29.10
2019-02-25T17:24:28.180Z,28.10
2019-02-25T17:27:00.018Z,24.52
2019-02-25T17:29:31.882Z,23.98
2019-02-25T17:32:01.945Z,24.07
2019-02-25T17:34:34.467Z,24.50
2019-02-25T17:37:05.939Z,20.82
2019-02-25T17:39:37.715Z,26.15
2019-02-25T17:42:08.183Z,23.67
2019-02-25T17:44:38.709Z,19.20
2019-02-25T17:47:08.858Z,29.67
2019-02-25T17:49:42.867Z,22.30
2019-02-25T17:52:16.300Z,25.15
2019-02-25T17:54:49.831Z,28.52
2019-02-25T17:57:19.898Z,33.08
2019-02-25T17:59:50.542Z,26.93
2019-02-25T18:02:20.307Z,39.58
2019-02-25T18:04:53.279Z,40.43
2019-02-25T18:07:22.992Z,43.13
2019-02-25T18:09:52.891Z,43.55
2019-02-25T18:12:29.442Z,67.20
2019-02-25T18:14:58.987Z,43.40
2019-02-25T18:17:29.709Z,49.20
2019-02-25T18:19:59.653Z,33.92
2019-02-25T18:22:33.053Z,31.93
2019-02-25T18:25:04.260Z,35.65
2019-02-25T18:27:35.177Z,41.37
2019-02-25T18:30:12.912Z,60.25
2019-02-25T18:32:42.552Z,55.58
2019-02-25T18:35:12.317Z,44.98
2019-02-25T18:37:43.524Z,47.43
2019-02-25T18:40:16.174Z,52.73
2019-02-25T18:42:47.171Z,35.65
2019-02-25T18:45:18.453Z,38.78
2019-02-25T18:47:49.520Z,36.10
2019-02-25T18:50:26.855Z,42.03
2019-02-25T18:52:57.369Z,45.25
2019-02-25T18:55:29.340Z,53.20
2019-02-25T18:57:59.250Z,35.68
2019-02-25T19:00:35.398Z,48.68
2019-02-25T19:03:05.506Z,49.42
2019-02-25T19:05:34.951Z,36.13
2019-02-25T19:08:09.698Z,40.10
2019-02-25T19:10:41.641Z,30.23
2019-02-25T19:13:10.806Z,26.75
2019-02-25T19:15:40.170Z,30.90
2019-02-25T19:18:11.077Z,35.60
2019-02-25T19:20:41.046Z,31.30
2019-02-25T19:23:11.727Z,31.75
2019-02-25T19:25:41.727Z,29.75
2019-02-25T19:28:13.970Z,32.88
2019-02-25T19:30:42.302Z,34.53
2019-02-25T19:33:11.769Z,37.35
2019-02-25T19:35:41.303Z,33.78
2019-02-25T19:38:12.774Z,27.20
2019-02-25T19:40:43.251Z,29.90
2019-02-25T19:43:12.941Z,28.23
2019-02-25T19:45:43.305Z,27.05
2019-02-25T19:48:12.895Z,28.75
2019-02-25T19:50:50.581Z,29.80
2019-02-25T19:53:15.226Z,30.85
2019-02-25T19:55:46.284Z,25.57
2019-02-25T19:58:15.768Z,25.55
2019-02-25T20:00:45.492Z,30.72
2019-02-25T20:03:15.379Z,33.00
2019-02-25T20:05:46.347Z,31.37
2019-02-25T20:08:16.337Z,31.10
2019-02-25T20:10:45.941Z,31.35
2019-02-25T20:13:15.441Z,28.92
2019-02-25T20:15:46.635Z,28.50
2019-02-25T20:18:18.395Z,26.75
2019-02-25T20:20:48.123Z,24.55
2019-02-25T20:23:20.215Z,26.25
2019-02-25T20:25:51.144Z,26.33
2019-02-25T20:28:22.431Z,27.87
2019-02-25T20:30:53.809Z,24.07
2019-02-25T20:33:29.328Z,35.65
2019-02-25T20:35:56.051Z,28.07
2019-02-25T20:38:27.069Z,33.73
2019-02-25T20:40:57.875Z,33.08
2019-02-25T20:43:30.828Z,37.17
2019-02-25T20:46:02.906Z,32.38
2019-02-25T20:48:33.168Z,27.35
2019-02-25T20:51:04.233Z,27.15
2019-02-25T20:53:37.620Z,21.42
2019-02-25T20:56:06.508Z,28.55
2019-02-25T20:58:37.802Z,21.80
2019-02-25T21:01:09.170Z,19.67
2019-02-25T21:03:41.550Z,19.10
2019-02-25T21:06:12.147Z,24.12
2019-02-25T21:08:42.420Z,27.75
2019-02-25T21:11:15.780Z,34.58
2019-02-25T21:13:45.145Z,30.70
2019-02-25T21:16:16.222Z,29.00
2019-02-25T21:18:46.642Z,26.48
2019-02-25T21:21:18.417Z,28.20
2019-02-25T21:23:47.852Z,23.52
2019-02-25T21:26:17.210Z,25.15
2019-02-25T21:28:46.539Z,31.77
2019-02-25T21:31:17.337Z,32.15
2019-02-25T21:33:49.798Z,26.95
2019-02-25T21:36:17.996Z,19.90
2019-02-25T21:38:49.505Z,31.23
2019-02-25T21:41:18.806Z,23.95
2019-02-25T21:43:49.429Z,22.15
2019-02-25T21:46:21.913Z,23.83
2019-02-25T21:48:53.019Z,27.15
2019-02-25T21:51:21.738Z,19.48
2019-02-25T21:53:53.671Z,25.20
2019-02-25T21:56:23.262Z,18.23
2019-02-25T21:58:53.214Z,21.82
2019-02-25T22:01:22.553Z,20.95
2019-02-25T22:03:52.549Z,21.40
2019-02-25T22:06:24.940Z,26.25
2019-02-25T22:08:55.958Z,23.27
2019-02-25T22:11:25.054Z,25.15
2019-02-25T22:13:54.380Z,20.48
2019-02-25T22:16:25.594Z,22.85
2019-02-25T22:18:56.455Z,16.37
2019-02-25T22:21:25.836Z,21.57
2019-02-25T22:23:57.633Z,21.10
2019-02-25T22:26:29.041Z,18.45
2019-02-25T22:28:59.662Z,19.90
2019-02-25T22:31:28.971Z,17.20
2019-02-25T22:33:58.327Z,18.23
2019-02-25T22:36:27.647Z,17.12
2019-02-25T22:38:58.922Z,19.17
2019-02-25T22:41:28.056Z,27.95
2019-02-25T22:43:57.435Z,19.82
2019-02-25T22:46:29.912Z,16.87
2019-02-25T22:48:59.328Z,19.90
2019-02-25T22:51:30.771Z,21.27
2019-02-25T22:53:59.955Z,18.37
2019-02-25T22:56:29.293Z,17.57
2019-02-25T22:59:00.408Z,15.58
2019-02-25T23:01:29.710Z,18.40
2019-02-25T23:03:59.084Z,16.05
2019-02-25T23:06:28.419Z,19.75
2019-02-25T23:08:57.795Z,20.00
2019-02-25T23:11:27.140Z,22.35
2019-02-25T23:13:56.518Z,21.97
2019-02-25T23:16:25.865Z,21.00
2019-02-25T23:18:55.238Z,19.23
2019-02-25T23:21:26.537Z,17.10
2019-02-25T23:23:58.091Z,16.90
2019-02-25T23:26:26.927Z,31.52
2019-02-25T23:28:57.673Z,17.73
2019-02-25T23:31:29.770Z,18.40
2019-02-25T23:33:58.429Z,16.80
2019-02-25T23:36:27.782Z,17.65
2019-02-25T23:38:59.443Z,19.12
2019-02-25T23:41:31.924Z,14.58
2019-02-25T23:43:59.329Z,19.07
2019-02-25T23:46:29.868Z,12.45
2019-02-25T23:48:59.744Z,12.73
2019-02-25T23:51:29.083Z,13.83
2019-02-25T23:53:58.447Z,17.27
2019-02-25T23:56:29.515Z,18.98
2019-02-25T23:58:58.869Z,15.78
